Terminal Aerodrome Forecast
Issued by NWS

Home | Current Version | Previous Version | Text Only | Print | Product List | Glossary On
Versions: 1 2 3 4 5 6 7 8 9 10 11 12 13 14 15 16 17
000
FTUS43 KBIS 230756 AAA
TAFJMS
TAF AMD
KJMS 230756Z 2308/2406 28015G22KT P6SM VCSH BKN080 WS020/28040KT
     FM231000 29016G21KT P6SM BKN110 WS020/29040KT
     FM231300 31026G35KT P6SM VCSH BKN050
     FM231700 32025G34KT P6SM BKN060
     FM240100 33017G23KT P6SM FEW050 WS020/34040KT=

USA.gov is the U.S. government's official web portal to all federal, state and local government web resources and services.